Time;durP1;ratioP1;P1;durP2;ratioP2;P2;SDS_P1;SDS_P2;PMS_P1;PMS_P2;Temp;Humidity;BMP_temperature;BMP_pressure;BME280_temperature;BME280_humidity;BME280_pressure;Samples;Min_cycle;Max_cycle;Signal;HPM_P1;HPM_P2
2022/06/22 00:01:26;;;;;;;3.10;1.67;;;19.00;57.90;;;;;;5072632;28;20435;-70
2022/06/22 00:03:57;;;;;;;3.60;1.70;;;19.00;58.00;;;;;;5074027;28;20226;-71
2022/06/22 00:06:32;;;;;;;2.30;1.40;;;19.00;58.00;;;;;;5074031;28;20472;-71
2022/06/22 00:08:59;;;;;;;3.13;1.50;;;18.90;58.20;;;;;;5073677;28;20786;-71
2022/06/22 00:11:26;;;;;;;2.07;1.30;;;18.90;58.30;;;;;;5074009;28;20452;-70
2022/06/22 00:13:56;;;;;;;2.10;1.30;;;18.80;58.50;;;;;;5073800;28;20545;-71
2022/06/22 00:16:26;;;;;;;1.40;1.30;;;18.70;58.60;;;;;;5073809;28;20447;-71
2022/06/22 00:18:56;;;;;;;4.60;1.80;;;18.60;58.80;;;;;;5073758;28;20453;-70
2022/06/22 00:21:26;;;;;;;4.57;2.27;;;18.50;58.80;;;;;;5073737;28;20448;-70
2022/06/22 00:23:56;;;;;;;1.80;1.47;;;18.50;59.40;;;;;;5073484;28;20471;-70
2022/06/22 00:26:33;;;;;;;1.53;1.43;;;18.50;58.80;;;;;;5074240;28;20444;-70
2022/06/22 00:29:06;;;;;;;2.23;1.47;;;18.40;58.70;;;;;;5073005;28;20440;-70
2022/06/22 00:31:37;;;;;;;3.23;1.53;;;18.30;58.70;;;;;;5073229;28;20447;-70
2022/06/22 00:34:14;;;;;;;5.30;1.60;;;18.30;58.80;;;;;;5073481;28;20477;-71
2022/06/22 00:36:46;;;;;;;2.13;1.23;;;18.30;59.00;;;;;;5073445;28;20425;-70
2022/06/22 00:39:18;;;;;;;2.97;1.90;;;18.30;59.10;;;;;;5073633;28;20499;-70
2022/06/22 00:41:50;;;;;;;3.93;1.40;;;18.30;59.00;;;;;;5074105;28;20811;-70
2022/06/22 00:44:19;;;;;;;3.40;1.63;;;18.20;59.00;;;;;;5073746;28;20490;-70
2022/06/22 00:47:05;;;;;;;1.70;1.60;;;18.20;59.30;;;;;;5073758;28;20488;-71
2022/06/22 00:49:33;;;;;;;4.30;1.80;;;18.10;59.40;;;;;;5073536;28;20428;-70
2022/06/22 00:52:02;;;;;;;1.50;1.40;;;18.00;59.40;;;;;;5074084;28;20448;-70
2022/06/22 00:54:32;;;;;;;2.90;1.50;;;18.00;59.40;;;;;;5073087;28;20480;-70
2022/06/22 00:57:06;;;;;;;3.23;1.30;;;18.00;59.50;;;;;;5073500;28;20439;-70
2022/06/22 00:59:39;;;;;;;2.43;2.20;;;18.00;59.70;;;;;;5073486;28;20472;-70
2022/06/22 01:02:16;;;;;;;3.50;1.87;;;18.00;59.90;;;;;;5076861;28;20432;-70
2022/06/22 01:04:48;;;;;;;2.40;1.63;;;18.00;60.10;;;;;;5077201;28;20829;-70
2022/06/22 01:07:26;;;;;;;1.93;1.40;;;17.90;60.10;;;;;;5077143;28;20787;-70
2022/06/22 01:09:59;;;;;;;3.03;1.70;;;17.90;60.30;;;;;;5077337;28;20463;-70
2022/06/22 01:12:32;;;;;;;6.03;2.20;;;17.90;60.40;;;;;;5077134;28;20436;-70
2022/06/22 01:15:06;;;;;;;3.20;1.80;;;17.90;60.80;;;;;;5076748;28;20812;-71
2022/06/22 01:17:40;;;;;;;2.77;2.20;;;18.00;61.50;;;;;;5077065;28;20439;-70
2022/06/22 01:20:14;;;;;;;1.90;1.80;;;18.00;61.80;;;;;;5077149;28;20811;-70
2022/06/22 01:23:12;;;;;;;3.37;2.50;;;18.00;62.10;;;;;;5076783;28;20464;-70
2022/06/22 01:25:51;;;;;;;3.57;1.90;;;18.00;62.10;;;;;;5071216;28;20452;-70
2022/06/22 01:28:20;;;;;;;4.63;1.93;;;17.90;62.00;;;;;;5076653;28;20429;-71
2022/06/22 01:30:51;;;;;;;2.23;2.00;;;17.90;61.90;;;;;;5076492;28;20459;-70
2022/06/22 01:33:32;;;;;;;2.60;1.77;;;17.80;61.70;;;;;;5076573;28;20464;-71
2022/06/22 01:36:01;;;;;;;2.03;1.80;;;17.80;61.60;;;;;;5076610;28;20479;-70
2022/06/22 01:38:31;;;;;;;2.23;1.60;;;17.70;61.30;;;;;;5076444;28;20484;-71
2022/06/22 01:41:07;;;;;;;1.73;1.63;;;17.60;61.20;;;;;;5076516;28;20444;-70
2022/06/22 01:43:40;;;;;;;2.83;1.53;;;17.50;61.20;;;;;;5076010;28;20993;-70
2022/06/22 01:46:15;;;;;;;2.37;1.90;;;17.40;61.40;;;;;;5076311;28;20440;-70
2022/06/22 01:48:47;;;;;;;2.27;1.93;;;17.30;61.60;;;;;;5076604;28;20424;-70
2022/06/22 01:51:21;;;;;;;4.23;2.37;;;17.20;61.80;;;;;;5076471;28;20433;-70
2022/06/22 01:53:50;;;;;;;3.37;2.10;;;17.20;62.00;;;;;;5079010;28;20487;-71
2022/06/22 01:56:26;;;;;;;3.70;2.47;;;17.10;62.00;;;;;;5096561;28;20450;-70
2022/06/22 01:59:03;;;;;;;2.80;1.90;;;17.10;62.00;;;;;;5096494;28;20859;-70
2022/06/22 02:01:35;;;;;;;4.13;2.20;;;17.10;62.00;;;;;;5096414;28;20442;-70
2022/06/22 02:04:25;;;;;;;1.93;1.80;;;17.10;62.00;;;;;;5096596;28;20468;-71
2022/06/22 02:10:03;;;;;;;2.20;2.00;;;17.00;62.20;;;;;;5096622;28;20400;-71
2022/06/22 02:12:37;;;;;;;2.33;2.13;;;17.00;62.30;;;;;;5095838;28;20432;-70
2022/06/22 02:15:13;;;;;;;2.60;2.40;;;17.00;62.70;;;;;;5096877;28;20428;-70
2022/06/22 02:17:42;;;;;;;4.53;2.30;;;17.00;63.00;;;;;;5097939;28;20471;-70
2022/06/22 02:20:37;;;;;;;2.90;2.30;;;17.00;63.30;;;;;;5098093;28;20483;-70
2022/06/22 02:23:10;;;;;;;4.50;2.90;;;17.00;63.70;;;;;;5096723;28;20957;-71
2022/06/22 02:25:42;;;;;;;5.77;3.20;;;17.00;64.20;;;;;;5095766;28;20436;-70
2022/06/22 02:28:09;;;;;;;4.43;3.30;;;17.10;64.70;;;;;;5095591;28;20793;-70
2022/06/22 02:30:38;;;;;;;2.97;2.77;;;17.10;64.90;;;;;;5095818;28;20501;-70
2022/06/22 02:33:06;;;;;;;2.80;2.60;;;17.10;64.80;;;;;;5096252;28;20472;-70
2022/06/22 02:35:34;;;;;;;4.70;2.80;;;17.10;64.80;;;;;;5096270;28;20509;-70
2022/06/22 02:38:05;;;;;;;3.00;2.50;;;17.00;64.80;;;;;;5096013;28;20440;-70
2022/06/22 02:44:29;;;;;;;3.63;2.40;;;17.00;64.90;;;;;;5096631;28;20428;-71
2022/06/22 02:46:13;;;;;;;4.23;2.60;;;16.90;64.60;;;;;;5096961;28;20939;-70
2022/06/22 02:48:42;;;;;;;3.47;2.03;;;16.80;64.30;;;;;;5097355;28;20436;-70
2022/06/22 02:51:16;;;;;;;3.73;2.20;;;16.80;64.10;;;;;;5097795;28;20436;-70
2022/06/22 02:53:44;;;;;;;3.17;2.33;;;16.70;63.90;;;;;;5097687;28;20471;-70
2022/06/22 02:56:22;;;;;;;2.10;1.90;;;16.60;63.60;;;;;;5095428;28;20439;-70
2022/06/22 02:58:49;;;;;;;2.50;2.07;;;16.50;63.50;;;;;;5095075;28;20463;-70
2022/06/22 03:01:21;;;;;;;3.63;2.47;;;16.50;63.60;;;;;;5095031;28;20451;-70
2022/06/22 03:03:52;;;;;;;3.47;2.63;;;16.50;64.00;;;;;;5095112;28;20470;-70
2022/06/22 03:06:22;;;;;;;3.90;2.70;;;16.50;64.20;;;;;;5094444;28;20924;-71
2022/06/22 03:08:50;;;;;;;3.00;2.67;;;16.50;64.30;;;;;;5094599;28;20443;-70
2022/06/22 03:11:18;;;;;;;3.20;2.40;;;16.50;64.40;;;;;;5094725;28;20960;-70
2022/06/22 03:13:48;;;;;;;3.10;2.87;;;16.50;64.60;;;;;;5094631;28;20468;-71
2022/06/22 03:16:26;;;;;;;3.37;2.80;;;16.40;64.70;;;;;;5094644;28;20454;-70
2022/06/22 03:18:55;;;;;;;4.10;2.57;;;16.40;65.00;;;;;;5094403;28;20808;-70
2022/06/22 03:21:22;;;;;;;2.43;2.23;;;16.40;65.50;;;;;;5094337;28;20967;-71
2022/06/22 03:23:52;;;;;;;3.87;2.57;;;16.40;65.70;;;;;;5093910;28;20464;-70
2022/06/22 03:26:23;;;;;;;4.90;2.93;;;16.30;65.60;;;;;;5095069;28;20527;-71
2022/06/22 03:28:55;;;;;;;3.27;2.80;;;16.30;65.70;;;;;;5094889;28;20420;-71
2022/06/22 03:31:27;;;;;;;4.73;3.10;;;16.30;66.10;;;;;;5094867;28;20430;-71
2022/06/22 03:33:59;;;;;;;5.77;2.90;;;16.30;66.20;;;;;;5094502;28;20803;-71
2022/06/22 03:36:32;;;;;;;2.97;2.70;;;16.20;66.20;;;;;;5094445;28;20443;-71
2022/06/22 03:39:02;;;;;;;6.87;3.40;;;16.30;66.50;;;;;;5093990;28;20566;-72
2022/06/22 03:41:34;;;;;;;5.03;2.60;;;16.30;66.80;;;;;;5093998;28;20428;-71
2022/06/22 03:44:04;;;;;;;3.50;2.97;;;16.30;67.20;;;;;;5094245;28;20468;-71
2022/06/22 03:46:37;;;;;;;6.53;3.50;;;16.30;67.60;;;;;;5094747;28;20452;-71
2022/06/22 03:49:11;;;;;;;4.27;3.03;;;16.30;67.80;;;;;;5094534;28;20427;-71
2022/06/22 03:51:44;;;;;;;5.97;3.50;;;16.30;67.80;;;;;;5094306;28;20443;-71
2022/06/22 03:54:16;;;;;;;3.17;2.87;;;16.20;67.90;;;;;;5094030;28;20475;-71
2022/06/22 03:56:49;;;;;;;5.17;2.93;;;16.20;67.90;;;;;;5093804;28;20438;-71
2022/06/22 03:59:16;;;;;;;4.93;3.20;;;16.20;68.20;;;;;;5094144;28;20491;-71
2022/06/22 04:01:44;;;;;;;3.20;2.60;;;16.20;68.30;;;;;;5094229;28;20474;-70
2022/06/22 04:04:12;;;;;;;4.70;3.20;;;16.20;68.30;;;;;;5093979;28;20989;-70
2022/06/22 04:06:44;;;;;;;5.37;2.83;;;16.10;68.50;;;;;;5094007;28;20444;-70
2022/06/22 04:09:14;;;;;;;3.67;3.37;;;16.10;68.70;;;;;;5094271;28;20439;-70
2022/06/22 04:11:45;;;;;;;5.03;2.87;;;16.10;69.10;;;;;;5094446;28;20451;-70
2022/06/22 04:14:17;;;;;;;3.70;3.07;;;16.10;69.40;;;;;;5094038;28;20921;-70
2022/06/22 04:16:50;;;;;;;2.93;2.73;;;16.10;69.70;;;;;;5093921;28;20428;-70
2022/06/22 04:19:21;;;;;;;8.43;2.73;;;16.10;70.00;;;;;;5093783;28;20463;-71
2022/06/22 04:21:52;;;;;;;5.13;3.30;;;16.20;70.40;;;;;;5093475;28;20798;-70
2022/06/22 04:24:23;;;;;;;4.13;2.93;;;16.20;70.60;;;;;;5093730;28;20464;-70
2022/06/22 04:26:55;;;;;;;3.33;3.03;;;16.30;71.00;;;;;;5093447;28;20918;-71
2022/06/22 04:29:29;;;;;;;3.90;3.10;;;16.30;71.10;;;;;;5093648;28;20432;-72
2022/06/22 04:32:01;;;;;;;3.80;3.40;;;16.30;71.30;;;;;;5093954;28;20439;-72
2022/06/22 04:34:37;;;;;;;4.00;3.60;;;16.40;71.70;;;;;;5093296;28;20826;-71
2022/06/22 04:37:09;;;;;;;3.50;3.17;;;16.40;72.30;;;;;;5093623;28;20436;-72
2022/06/22 04:39:41;;;;;;;8.60;3.73;;;16.40;72.80;;;;;;5093516;28;20932;-72
2022/06/22 04:42:09;;;;;;;8.23;3.70;;;16.40;73.20;;;;;;5093875;28;20424;-71
2022/06/22 04:44:44;;;;;;;5.73;3.93;;;16.40;73.50;;;;;;5093777;28;20471;-71
2022/06/22 04:47:17;;;;;;;9.00;4.70;;;16.40;74.00;;;;;;5093950;28;20449;-72
2022/06/22 04:49:49;;;;;;;5.40;3.90;;;16.40;74.80;;;;;;5094934;28;20431;-72
2022/06/22 04:52:22;;;;;;;8.37;3.73;;;16.40;75.10;;;;;;5094941;28;20942;-71
2022/06/22 04:54:53;;;;;;;8.60;4.10;;;16.50;75.50;;;;;;5084752;28;20491;-72
2022/06/22 04:57:24;;;;;;;6.60;3.80;;;16.50;75.80;;;;;;5074760;28;20429;-72
2022/06/22 04:59:51;;;;;;;7.03;5.57;;;16.60;76.20;;;;;;5073151;28;20468;-70
2022/06/22 05:02:22;;;;;;;5.87;4.87;;;16.60;76.70;;;;;;5073049;28;20452;-70
2022/06/22 05:04:52;;;;;;;8.50;4.93;;;16.70;77.20;;;;;;5073177;28;20433;-70
2022/06/22 05:07:35;;;;;;;8.23;4.40;;;16.70;78.00;;;;;;5073067;28;20538;-70
2022/06/22 05:10:06;;;;;;;9.67;5.60;;;16.80;78.50;;;;;;5073185;28;20479;-70
2022/06/22 05:12:45;;;;;;;6.90;5.20;;;16.90;79.20;;;;;;5072775;28;20433;-69
2022/06/22 05:15:18;;;;;;;9.57;5.53;;;16.90;79.50;;;;;;5073034;28;20901;-69
2022/06/22 05:17:47;;;;;;;10.00;5.57;;;17.00;79.80;;;;;;5072981;28;20444;-69
2022/06/22 05:20:19;;;;;;;7.40;5.57;;;17.10;80.10;;;;;;5072782;28;20484;-69
2022/06/22 05:22:48;;;;;;;4.40;4.00;;;17.10;80.50;;;;;;5072991;28;20468;-70
2022/06/22 05:25:16;;;;;;;5.83;5.30;;;17.20;80.80;;;;;;5072611;28;20957;-68
2022/06/22 05:27:53;;;;;;;6.80;5.60;;;17.30;80.40;;;;;;5072846;28;20543;-68
2022/06/22 05:30:21;;;;;;;8.70;5.30;;;17.30;79.90;;;;;;5072911;28;20424;-68
2022/06/22 05:32:53;;;;;;;6.77;4.70;;;17.40;80.70;;;;;;5072831;28;20898;-68
2022/06/22 05:35:24;;;;;;;8.17;5.40;;;17.40;81.00;;;;;;5073608;28;20439;-67
2022/06/22 05:37:54;;;;;;;8.53;5.60;;;17.50;81.00;;;;;;5072843;28;20425;-68
2022/06/22 05:40:23;;;;;;;6.50;5.83;;;17.60;81.00;;;;;;5072620;28;20511;-69
2022/06/22 05:42:50;;;;;;;5.60;5.10;;;17.60;80.70;;;;;;5072558;28;20464;-69
2022/06/22 05:45:19;;;;;;;6.60;5.47;;;17.80;80.70;;;;;;5072532;28;20454;-69
2022/06/22 05:47:46;;;;;;;6.60;5.80;;;17.80;80.30;;;;;;5075197;28;20445;-68
2022/06/22 05:50:25;;;;;;;7.57;4.70;;;17.90;80.20;;;;;;5076042;28;20502;-68
2022/06/22 05:52:58;;;;;;;6.57;4.70;;;18.00;80.30;;;;;;5076098;28;20483;-69
2022/06/22 05:55:32;;;;;;;7.30;5.20;;;18.20;79.60;;;;;;5076029;28;20464;-68
2022/06/22 05:58:05;;;;;;;7.87;5.90;;;18.30;79.30;;;;;;5076510;28;20494;-68
2022/06/22 06:00:38;;;;;;;5.27;4.87;;;18.40;79.20;;;;;;5076203;28;20829;-69
2022/06/22 06:03:13;;;;;;;13.97;6.23;;;18.50;79.00;;;;;;5077116;28;20978;-69
2022/06/22 06:05:45;;;;;;;5.03;4.63;;;18.60;79.10;;;;;;5076092;28;20932;-69
2022/06/22 06:08:21;;;;;;;4.50;3.60;;;18.60;78.70;;;;;;5077357;28;20444;-69
2022/06/22 06:10:48;;;;;;;7.43;4.40;;;18.70;78.10;;;;;;5077774;28;20478;-69
2022/06/22 06:13:22;;;;;;;10.63;5.10;;;18.80;77.90;;;;;;5078860;28;20468;-69
2022/06/22 06:15:53;;;;;;;8.40;4.93;;;18.90;77.10;;;;;;5079279;28;20443;-68
2022/06/22 06:18:24;;;;;;;5.43;4.83;;;19.00;77.30;;;;;;5076731;28;20429;-69
2022/06/22 06:21:00;;;;;;;6.97;5.20;;;19.10;76.70;;;;;;5075609;28;20469;-68
2022/06/22 06:23:32;;;;;;;5.17;4.67;;;19.30;75.50;;;;;;5075466;28;20475;-68
2022/06/22 06:28:50;;;;;;;15.00;4.80;;;19.50;75.80;;;;;;5075718;28;20405;-68
2022/06/22 06:31:25;;;;;;;6.30;4.97;;;19.60;75.40;;;;;;5075536;28;20429;-69
2022/06/22 06:33:52;;;;;;;8.87;3.83;;;19.80;74.70;;;;;;5075577;28;20467;-72
2022/06/22 06:36:24;;;;;;;6.40;3.93;;;20.00;73.50;;;;;;5075089;28;20934;-73
2022/06/22 06:38:57;;;;;;;9.00;4.50;;;20.10;73.00;;;;;;5075381;28;20437;-72
2022/06/22 06:41:31;;;;;;;6.00;3.70;;;20.30;72.50;;;;;;5075453;28;20491;-73
2022/06/22 06:44:01;;;;;;;4.70;3.40;;;20.50;72.20;;;;;;5074999;28;21004;-72
2022/06/22 06:46:32;;;;;;;4.87;3.03;;;20.60;70.40;;;;;;5075472;28;20437;-73
2022/06/22 06:49:02;;;;;;;4.70;3.53;;;20.80;68.60;;;;;;5074912;28;20996;-72
2022/06/22 06:51:32;;;;;;;8.40;3.80;;;21.00;67.80;;;;;;5075374;28;20433;-72
2022/06/22 06:54:06;;;;;;;6.27;4.57;;;21.30;68.10;;;;;;5075272;28;20564;-73
2022/06/22 06:56:37;;;;;;;5.03;2.97;;;21.40;67.10;;;;;;5075239;28;20429;-72
2022/06/22 06:59:11;;;;;;;8.47;4.00;;;21.60;65.70;;;;;;5075323;28;20433;-73
2022/06/22 07:01:39;;;;;;;4.40;3.30;;;21.70;65.60;;;;;;5075212;28;20461;-73
2022/06/22 07:04:12;;;;;;;4.60;3.13;;;21.90;65.30;;;;;;5075073;28;20464;-72
2022/06/22 07:06:41;;;;;;;4.90;2.60;;;22.10;63.60;;;;;;5075142;28;20433;-73
2022/06/22 07:09:26;;;;;;;6.97;4.23;;;22.30;63.00;;;;;;5075112;28;20459;-73
2022/06/22 07:11:59;;;;;;;5.50;3.20;;;22.60;62.90;;;;;;5074573;28;20487;-73
2022/06/22 07:14:30;;;;;;;6.53;3.80;;;22.70;62.10;;;;;;5074995;28;20475;-73
2022/06/22 07:17:01;;;;;;;9.07;3.53;;;22.90;60.30;;;;;;5074978;28;20433;-73
2022/06/22 07:19:33;;;;;;;9.13;3.40;;;23.10;59.70;;;;;;5074675;28;20985;-73
2022/06/22 07:22:09;;;;;;;4.90;3.30;;;23.30;59.00;;;;;;5074760;28;20441;-72
2022/06/22 07:24:42;;;;;;;6.90;3.27;;;23.60;58.70;;;;;;5075332;28;20488;-72
2022/06/22 07:27:17;;;;;;;9.53;3.40;;;23.80;58.00;;;;;;5074566;28;20428;-74
2022/06/22 07:29:51;;;;;;;7.50;3.30;;;24.00;57.20;;;;;;5074921;28;20420;-72
2022/06/22 07:32:23;;;;;;;4.97;3.17;;;24.30;56.60;;;;;;5075223;28;20440;-72
2022/06/22 07:34:58;;;;;;;10.10;2.53;;;24.50;56.60;;;;;;5075219;28;20425;-73
2022/06/22 07:37:33;;;;;;;8.30;2.43;;;24.70;55.60;;;;;;5074836;28;21001;-73
2022/06/22 07:40:07;;;;;;;6.87;2.60;;;24.90;54.70;;;;;;5074763;28;20479;-73
2022/06/22 07:42:34;;;;;;;5.90;2.83;;;25.10;53.90;;;;;;5074554;28;20425;-73
2022/06/22 07:45:01;;;;;;;4.80;2.37;;;25.30;53.20;;;;;;5074217;28;20441;-73
2022/06/22 07:47:37;;;;;;;4.00;2.23;;;25.50;52.40;;;;;;5073975;28;20825;-73
2022/06/22 07:50:12;;;;;;;5.77;2.43;;;25.70;51.40;;;;;;5074309;28;20425;-73
2022/06/22 07:52:44;;;;;;;4.57;2.10;;;25.90;50.90;;;;;;5074091;28;20476;-73
2022/06/22 07:55:21;;;;;;;3.73;2.10;;;26.10;50.60;;;;;;5073432;28;20965;-74
2022/06/22 07:58:14;;;;;;;5.63;1.97;;;26.30;49.30;;;;;;5074156;28;20440;-74
2022/06/22 08:00:43;;;;;;;2.77;1.83;;;26.50;48.50;;;;;;5073799;28;21016;-73
2022/06/22 08:03:21;;;;;;;4.13;2.10;;;26.70;47.90;;;;;;5073783;28;20475;-73
2022/06/22 08:05:51;;;;;;;5.40;2.20;;;26.90;47.60;;;;;;5074373;28;20403;-74
2022/06/22 08:08:23;;;;;;;5.20;2.90;;;27.00;47.20;;;;;;5073660;28;20962;-73
2022/06/22 08:10:54;;;;;;;7.40;2.27;;;27.30;47.10;;;;;;5073543;28;20425;-73
2022/06/22 08:13:24;;;;;;;3.27;2.40;;;27.40;47.00;;;;;;5074155;28;20460;-73
2022/06/22 08:15:54;;;;;;;3.50;1.90;;;27.60;47.10;;;;;;5073643;28;20817;-74
2022/06/22 08:18:21;;;;;;;5.87;2.27;;;27.70;47.10;;;;;;5074371;28;20445;-73
2022/06/22 08:20:51;;;;;;;3.67;2.33;;;28.00;47.00;;;;;;5073805;28;20480;-73
2022/06/22 08:23:23;;;;;;;5.90;2.60;;;28.10;46.60;;;;;;5073525;28;20875;-73
2022/06/22 08:25:51;;;;;;;3.10;2.40;;;28.30;46.10;;;;;;5073941;28;20490;-74
2022/06/22 08:28:20;;;;;;;4.20;2.70;;;28.60;45.50;;;;;;5073860;28;20814;-74
2022/06/22 08:30:50;;;;;;;4.07;1.83;;;28.80;45.00;;;;;;5073701;28;20441;-74
2022/06/22 08:33:22;;;;;;;6.27;2.10;;;29.00;44.10;;;;;;5073932;28;20636;-73
2022/06/22 08:35:53;;;;;;;4.97;2.63;;;29.20;43.80;;;;;;5073583;28;20431;-73
2022/06/22 08:38:25;;;;;;;4.33;1.90;;;29.40;43.40;;;;;;5073860;28;20433;-73
2022/06/22 08:40:57;;;;;;;3.90;2.00;;;29.60;43.00;;;;;;5073469;28;20480;-73
2022/06/22 08:43:32;;;;;;;4.20;2.37;;;29.80;42.40;;;;;;5073723;28;20461;-74
2022/06/22 08:46:14;;;;;;;3.43;1.90;;;30.00;40.90;;;;;;5073683;28;20429;-74
2022/06/22 08:49:08;;;;;;;3.73;2.10;;;30.20;41.00;;;;;;5073934;28;20440;-73
2022/06/22 08:51:55;;;;;;;2.87;2.03;;;30.40;41.00;;;;;;5074053;28;20425;-71
2022/06/22 08:54:54;;;;;;;7.00;2.37;;;30.50;39.70;;;;;;5073448;28;20498;-73
2022/06/22 08:57:27;;;;;;;6.27;2.23;;;30.60;40.10;;;;;;5074387;28;20449;-72
2022/06/22 09:00:13;;;;;;;5.60;2.30;;;30.70;40.40;;;;;;5073489;28;20787;-72
2022/06/22 09:03:11;;;;;;;3.57;1.53;;;30.90;39.90;;;;;;5073418;28;20482;-71
2022/06/22 09:06:34;;;;;;;3.43;1.80;;;31.10;38.70;;;;;;5073372;28;20482;-72
2022/06/22 09:09:34;;;;;;;3.53;1.67;;;31.30;38.20;;;;;;5031162;28;20444;-71
2022/06/22 09:12:13;;;;;;;3.50;2.03;;;31.60;37.90;;;;;;5070616;28;20475;-72
2022/06/22 09:14:59;;;;;;;2.43;1.67;;;31.90;36.80;;;;;;5073360;28;20463;-71
2022/06/22 09:17:50;;;;;;;3.67;1.90;;;32.10;36.40;;;;;;5073388;28;20428;-72
2022/06/22 09:20:35;;;;;;;5.83;2.40;;;32.30;36.10;;;;;;5073396;28;20436;-72
2022/06/22 09:23:16;;;;;;;3.50;2.47;;;32.50;35.70;;;;;;5076863;28;20470;-71
2022/06/22 09:25:47;;;;;;;5.20;1.90;;;32.70;35.20;;;;;;5077211;28;20802;-72
2022/06/22 09:28:23;;;;;;;3.43;2.37;;;32.80;34.40;;;;;;5078232;28;20433;-72
2022/06/22 09:31:18;;;;;;;2.10;1.90;;;33.00;33.80;;;;;;5077780;28;20901;-72
2022/06/22 09:34:10;;;;;;;2.50;1.80;;;33.20;34.00;;;;;;5078455;28;20466;-72
2022/06/22 09:37:02;;;;;;;4.63;2.20;;;33.40;34.20;;;;;;5071634;28;20462;-72
2022/06/22 09:39:43;;;;;;;5.83;2.53;;;33.60;34.20;;;;;;5079105;28;20515;-72
2022/06/22 09:42:38;;;;;;;4.70;2.30;;;33.80;33.00;;;;;;5077934;28;20555;-72
2022/06/22 09:45:30;;;;;;;2.90;2.27;;;34.10;32.80;;;;;;5076720;28;20432;-72
2022/06/22 09:48:16;;;;;;;3.83;2.30;;;34.30;33.10;;;;;;5076246;28;20928;-73
2022/06/22 09:50:58;;;;;;;2.43;2.23;;;34.50;32.60;;;;;;5076679;28;20781;-72
2022/06/22 09:53:49;;;;;;;6.00;2.40;;;34.70;31.40;;;;;;5076247;28;20468;-72
2022/06/22 09:56:30;;;;;;;7.00;2.30;;;34.90;30.90;;;;;;5076254;28;20438;-72
2022/06/22 10:02:27;;;;;;;3.80;2.07;;;35.30;29.70;;;;;;5076091;28;20505;-71
2022/06/22 10:05:34;;;;;;;5.63;2.50;;;35.60;29.50;;;;;;5076048;28;20929;-72
2022/06/22 10:08:16;;;;;;;2.20;1.87;;;35.80;29.70;;;;;;5070853;28;20470;-72
2022/06/22 10:10:52;;;;;;;7.43;2.10;;;36.20;29.80;;;;;;5075935;28;20269;-72
2022/06/22 10:13:48;;;;;;;3.80;2.30;;;36.50;29.20;;;;;;5076161;28;20233;-71
2022/06/22 10:16:31;;;;;;;3.80;1.80;;;36.70;28.50;;;;;;5075855;28;20714;-72
2022/06/22 10:19:15;;;;;;;2.53;1.93;;;37.10;28.10;;;;;;5076106;28;20293;-73
2022/06/22 10:21:58;;;;;;;2.35;1.63;;;37.40;27.60;;;;;;5075520;28;20600;-72
2022/06/22 10:24:43;;;;;;;3.55;2.10;;;37.70;26.50;;;;;;5075901;28;20312;-72
2022/06/22 10:27:45;;;;;;;6.10;2.45;;;38.00;26.30;;;;;;5075990;28;20243;-72
2022/06/22 10:30:24;;;;;;;4.38;1.98;;;38.30;26.00;;;;;;5075678;28;20296;-72
2022/06/22 10:33:21;;;;;;;4.57;2.33;;;38.60;25.20;;;;;;5075206;28;20228;-72
2022/06/22 10:36:14;;;;;;;3.53;1.85;;;39.00;24.80;;;;;;5075691;28;20193;-72
2022/06/22 10:39:02;;;;;;;2.42;1.90;;;39.40;24.50;;;;;;5075832;28;20182;-71
2022/06/22 10:45:10;;;;;;;5.85;2.10;;;40.30;23.70;;;;;;5075604;28;20288;-73
2022/06/22 10:48:00;;;;;;;5.18;2.15;;;40.70;23.30;;;;;;5075547;28;20240;-73
2022/06/22 10:50:36;;;;;;;2.45;1.88;;;41.00;22.60;;;;;;5075026;28;20562;-72
2022/06/22 10:53:36;;;;;;;4.32;2.28;;;41.30;22.20;;;;;;5075495;28;20224;-73
2022/06/22 10:56:18;;;;;;;3.55;1.77;;;41.60;22.30;;;;;;5075157;28;20278;-74
2022/06/22 10:59:05;;;;;;;3.13;1.90;;;41.90;21.50;;;;;;5075533;28;20251;-73
2022/06/22 11:01:58;;;;;;;4.47;2.22;;;42.40;21.30;;;;;;5075234;28;20274;-74
2022/06/22 11:04:55;;;;;;;4.05;1.70;;;43.00;20.60;;;;;;5075106;28;20309;-74
2022/06/22 11:07:47;;;;;;;5.40;1.88;;;43.50;21.00;;;;;;5041810;28;20205;-74
2022/06/22 11:10:29;;;;;;;5.63;1.80;;;44.00;19.90;;;;;;5074660;28;20190;-74
2022/06/22 11:13:10;;;;;;;6.65;1.75;;;44.50;19.30;;;;;;5075319;28;20304;-73
2022/06/22 11:16:19;;;;;;;3.13;1.52;;;44.90;19.20;;;;;;5075034;28;20186;-73
2022/06/22 11:19:08;;;;;;;3.05;1.58;;;45.40;18.50;;;;;;5074647;28;20225;-73
2022/06/22 11:21:59;;;;;;;3.97;1.77;;;45.70;17.90;;;;;;5074629;28;20726;-75
2022/06/22 11:25:02;;;;;;;4.65;1.70;;;46.10;17.80;;;;;;5074901;28;20226;-73
2022/06/22 11:30:51;;;;;;;2.00;1.70;;;46.60;17.50;;;;;;5074919;28;20552;-75
2022/06/22 11:33:38;;;;;;;2.55;1.30;;;46.80;16.70;;;;;;5074797;28;20214;-73
2022/06/22 11:36:18;;;;;;;3.05;1.52;;;47.00;16.60;;;;;;5074817;28;20200;-72
2022/06/22 11:39:17;;;;;;;2.78;1.45;;;47.20;16.00;;;;;;5074519;28;20240;-73
2022/06/22 11:42:09;;;;;;;4.45;1.52;;;47.30;16.20;;;;;;5059114;28;20202;-72
2022/06/22 11:48:21;;;;;;;2.78;1.75;;;48.00;15.50;;;;;;5048313;28;20649;-73
2022/06/22 11:51:03;;;;;;;4.60;1.73;;;48.20;15.10;;;;;;5074013;28;20693;-73
2022/06/22 11:53:49;;;;;;;2.88;1.30;;;48.50;15.00;;;;;;5073888;28;20229;-73
2022/06/22 11:56:27;;;;;;;2.15;1.55;;;48.70;14.90;;;;;;5074314;28;20272;-74
2022/06/22 11:59:13;;;;;;;2.08;1.65;;;48.90;14.70;;;;;;5074402;28;20196;-73
2022/06/22 12:02:31;;;;;;;3.50;1.30;;;49.10;14.20;;;;;;5073941;28;20215;-73
2022/06/22 12:05:22;;;;;;;4.78;1.58;;;49.30;14.30;;;;;;5073862;28;20277;-74
2022/06/22 12:08:17;;;;;;;2.90;1.48;;;49.40;13.70;;;;;;5071818;28;20236;-73
2022/06/22 12:10:50;;;;;;;2.38;1.73;;;49.50;13.20;;;;;;5073760;28;20196;-73
2022/06/22 12:13:29;;;;;;;2.80;2.08;;;49.50;13.80;;;;;;5073801;28;20321;-72
2022/06/22 12:16:05;;;;;;;3.88;1.25;;;49.70;14.10;;;;;;5073802;28;20281;-73
2022/06/22 12:18:49;;;;;;;4.90;1.80;;;49.90;14.20;;;;;;5073908;28;20182;-73
2022/06/22 12:21:34;;;;;;;2.85;1.33;;;50.10;13.90;;;;;;5073613;28;20182;-72
2022/06/22 12:24:10;;;;;;;4.55;1.60;;;50.40;13.70;;;;;;5073941;28;20225;-72
2022/06/22 12:26:51;;;;;;;3.60;1.20;;;50.50;13.40;;;;;;5073926;28;20711;-73
2022/06/22 12:29:51;;;;;;;5.25;2.00;;;50.70;13.40;;;;;;5074148;28;20197;-73
2022/06/22 12:32:22;;;;;;;2.80;1.33;;;50.90;11.70;;;;;;5073991;28;20600;-72
2022/06/22 12:35:04;;;;;;;3.65;1.30;;;50.80;12.60;;;;;;5074285;28;20191;-73
2022/06/22 12:37:35;;;;;;;2.33;1.20;;;50.90;13.00;;;;;;5074566;28;20658;-72
2022/06/22 12:40:06;;;;;;;2.75;1.17;;;50.90;13.00;;;;;;5075491;28;20190;-73
2022/06/22 12:42:49;;;;;;;3.63;1.50;;;51.10;12.60;;;;;;5076736;28;20277;-72
2022/06/22 12:45:26;;;;;;;1.98;1.23;;;51.20;10.80;;;;;;5077440;28;20671;-72
2022/06/22 12:48:37;;;;;;;2.25;1.02;;;50.90;11.50;;;;;;5074571;28;20682;-73
2022/06/22 12:51:14;;;;;;;1.42;0.98;;;50.90;11.70;;;;;;5074096;28;20186;-73
2022/06/22 12:53:48;;;;;;;2.42;1.40;;;50.90;12.40;;;;;;5074710;28;20731;-72
2022/06/22 12:56:20;;;;;;;1.70;1.20;;;51.00;12.60;;;;;;5077816;28;20201;-73
2022/06/22 12:58:50;;;;;;;2.80;1.10;;;51.30;12.50;;;;;;5079898;28;20615;-74
2022/06/22 13:01:18;;;;;;;1.55;1.00;;;51.40;11.70;;;;;;5080184;28;20198;-73
2022/06/22 13:03:50;;;;;;;1.48;1.20;;;51.70;11.50;;;;;;5079144;28;20251;-72
2022/06/22 13:06:19;;;;;;;3.80;1.25;;;51.90;11.40;;;;;;5077463;28;20213;-73
2022/06/22 13:08:46;;;;;;;3.80;1.08;;;52.20;11.20;;;;;;5077378;28;20329;-73
2022/06/22 13:11:18;;;;;;;2.20;1.30;;;52.30;11.00;;;;;;5077182;28;20252;-72
2022/06/22 13:13:58;;;;;;;2.22;1.30;;;52.50;11.00;;;;;;5077270;28;20224;-72
2022/06/22 13:16:30;;;;;;;1.63;1.20;;;52.60;10.20;;;;;;5077298;28;20223;-73
2022/06/22 13:19:09;;;;;;;1.73;1.20;;;52.60;11.10;;;;;;5076853;28;20548;-72
2022/06/22 13:21:43;;;;;;;1.60;0.82;;;52.70;11.00;;;;;;5076967;28;20182;-72
2022/06/22 13:24:22;;;;;;;3.47;1.30;;;52.90;11.20;;;;;;5076776;28;20229;-72
2022/06/22 13:26:58;;;;;;;4.07;1.25;;;53.10;10.70;;;;;;5076946;28;20276;-72
2022/06/22 13:29:31;;;;;;;1.90;1.30;;;53.20;10.70;;;;;;5076852;28;20662;-73
2022/06/22 13:32:01;;;;;;;2.22;1.20;;;53.40;10.80;;;;;;5076538;28;20746;-72
2022/06/22 13:34:33;;;;;;;3.03;1.20;;;53.60;10.20;;;;;;5076916;28;20229;-73
2022/06/22 13:37:09;;;;;;;1.48;1.20;;;53.80;10.50;;;;;;5076978;28;20188;-73
2022/06/22 13:39:49;;;;;;;2.55;1.20;;;53.90;10.10;;;;;;5076909;28;20220;-72
2022/06/22 13:42:44;;;;;;;2.17;1.20;;;54.00;10.10;;;;;;5077001;28;20273;-73
2022/06/22 13:45:30;;;;;;;4.18;1.38;;;54.10;9.70;;;;;;5066121;28;20554;-73
2022/06/22 13:48:17;;;;;;;3.65;1.20;;;54.20;9.70;;;;;;5076626;28;20277;-73
2022/06/22 13:51:21;;;;;;;3.05;1.10;;;54.20;9.80;;;;;;5076933;28;20194;-71
2022/06/22 13:54:26;;;;;;;2.95;1.35;;;54.30;10.10;;;;;;5076101;28;20264;-72
2022/06/22 13:57:02;;;;;;;3.05;1.20;;;54.40;9.90;;;;;;5076622;28;20643;-72
2022/06/22 13:59:35;;;;;;;2.25;1.02;;;54.60;9.40;;;;;;5076150;28;20186;-72